sensor_id;sensor_type;location;lat;lon;timestamp;P1;durP1;ratioP1;P2;durP2;ratioP2
9422;SDS011;65863;49.506;10.400;2023-04-06T00:02:41;11.27;;;8.23;;
9422;SDS011;65863;49.506;10.400;2023-04-06T00:05:25;10.43;;;7.47;;
9422;SDS011;65863;49.506;10.400;2023-04-06T00:08:10;10.37;;;8.10;;
9422;SDS011;65863;49.506;10.400;2023-04-06T00:10:54;14.20;;;9.77;;
9422;SDS011;65863;49.506;10.400;2023-04-06T00:13:38;15.43;;;9.07;;
9422;SDS011;65863;49.506;10.400;2023-04-06T00:16:22;11.93;;;8.47;;
9422;SDS011;65863;49.506;10.400;2023-04-06T00:19:06;13.30;;;9.03;;
9422;SDS011;65863;49.506;10.400;2023-04-06T00:21:50;12.43;;;9.17;;
9422;SDS011;65863;49.506;10.400;2023-04-06T00:24:34;14.87;;;9.63;;
9422;SDS011;65863;49.506;10.400;2023-04-06T00:27:19;11.43;;;8.73;;
9422;SDS011;65863;49.506;10.400;2023-04-06T00:30:03;12.50;;;9.60;;
9422;SDS011;65863;49.506;10.400;2023-04-06T00:32:48;13.83;;;8.70;;
9422;SDS011;65863;49.506;10.400;2023-04-06T00:35:33;10.90;;;8.60;;
9422;SDS011;65863;49.506;10.400;2023-04-06T00:38:17;10.93;;;9.13;;
9422;SDS011;65863;49.506;10.400;2023-04-06T00:41:03;15.07;;;9.23;;
9422;SDS011;65863;49.506;10.400;2023-04-06T00:43:48;12.50;;;9.13;;
9422;SDS011;65863;49.506;10.400;2023-04-06T00:46:32;12.00;;;8.57;;
9422;SDS011;65863;49.506;10.400;2023-04-06T00:49:16;10.27;;;8.60;;
9422;SDS011;65863;49.506;10.400;2023-04-06T00:52:00;11.97;;;9.43;;
9422;SDS011;65863;49.506;10.400;2023-04-06T00:54:45;12.33;;;8.23;;
9422;SDS011;65863;49.506;10.400;2023-04-06T00:57:31;13.97;;;8.57;;
9422;SDS011;65863;49.506;10.400;2023-04-06T01:00:15;11.93;;;9.13;;
9422;SDS011;65863;49.506;10.400;2023-04-06T01:03:02;11.00;;;8.90;;
9422;SDS011;65863;49.506;10.400;2023-04-06T01:05:55;10.43;;;8.53;;
9422;SDS011;65863;49.506;10.400;2023-04-06T01:08:46;10.63;;;8.07;;
9422;SDS011;65863;49.506;10.400;2023-04-06T01:11:37;10.80;;;8.20;;
9422;SDS011;65863;49.506;10.400;2023-04-06T01:14:25;12.93;;;9.07;;
9422;SDS011;65863;49.506;10.400;2023-04-06T01:17:15;12.13;;;8.37;;
9422;SDS011;65863;49.506;10.400;2023-04-06T01:20:00;11.47;;;8.33;;
9422;SDS011;65863;49.506;10.400;2023-04-06T01:22:48;9.97;;;7.73;;
9422;SDS011;65863;49.506;10.400;2023-04-06T01:25:32;16.00;;;8.07;;
9422;SDS011;65863;49.506;10.400;2023-04-06T01:28:24;9.87;;;7.60;;
9422;SDS011;65863;49.506;10.400;2023-04-06T01:31:18;13.17;;;8.13;;
9422;SDS011;65863;49.506;10.400;2023-04-06T01:34:07;10.33;;;7.90;;
9422;SDS011;65863;49.506;10.400;2023-04-06T01:36:51;11.07;;;7.57;;
9422;SDS011;65863;49.506;10.400;2023-04-06T01:39:44;10.57;;;8.33;;
9422;SDS011;65863;49.506;10.400;2023-04-06T01:42:34;10.53;;;8.40;;
9422;SDS011;65863;49.506;10.400;2023-04-06T01:45:18;11.83;;;8.40;;
9422;SDS011;65863;49.506;10.400;2023-04-06T01:48:04;8.03;;;7.17;;
9422;SDS011;65863;49.506;10.400;2023-04-06T01:50:49;11.67;;;8.83;;
9422;SDS011;65863;49.506;10.400;2023-04-06T01:53:38;11.43;;;9.17;;
9422;SDS011;65863;49.506;10.400;2023-04-06T01:56:24;15.50;;;9.47;;
9422;SDS011;65863;49.506;10.400;2023-04-06T01:59:17;11.17;;;9.30;;
9422;SDS011;65863;49.506;10.400;2023-04-06T02:02:02;10.30;;;8.63;;
9422;SDS011;65863;49.506;10.400;2023-04-06T02:04:48;11.23;;;8.50;;
9422;SDS011;65863;49.506;10.400;2023-04-06T02:07:32;10.67;;;8.97;;
9422;SDS011;65863;49.506;10.400;2023-04-06T02:10:17;10.57;;;8.07;;
9422;SDS011;65863;49.506;10.400;2023-04-06T02:13:02;10.97;;;9.33;;
9422;SDS011;65863;49.506;10.400;2023-04-06T02:15:46;11.53;;;9.57;;
9422;SDS011;65863;49.506;10.400;2023-04-06T02:18:31;11.87;;;9.33;;
9422;SDS011;65863;49.506;10.400;2023-04-06T02:21:15;12.07;;;9.10;;
9422;SDS011;65863;49.506;10.400;2023-04-06T02:24:03;13.20;;;9.43;;
9422;SDS011;65863;49.506;10.400;2023-04-06T02:26:48;14.77;;;9.27;;
9422;SDS011;65863;49.506;10.400;2023-04-06T02:29:32;12.77;;;8.73;;
9422;SDS011;65863;49.506;10.400;2023-04-06T02:32:17;10.93;;;8.33;;
9422;SDS011;65863;49.506;10.400;2023-04-06T02:35:01;10.13;;;8.30;;
9422;SDS011;65863;49.506;10.400;2023-04-06T02:37:46;9.57;;;8.20;;
9422;SDS011;65863;49.506;10.400;2023-04-06T02:40:31;10.63;;;8.70;;
9422;SDS011;65863;49.506;10.400;2023-04-06T02:43:20;11.13;;;8.80;;
9422;SDS011;65863;49.506;10.400;2023-04-06T02:46:06;12.30;;;8.90;;
9422;SDS011;65863;49.506;10.400;2023-04-06T02:48:54;11.10;;;8.23;;
9422;SDS011;65863;49.506;10.400;2023-04-06T02:51:38;13.77;;;8.83;;
9422;SDS011;65863;49.506;10.400;2023-04-06T02:54:33;10.00;;;7.87;;
9422;SDS011;65863;49.506;10.400;2023-04-06T02:57:19;9.53;;;7.77;;
9422;SDS011;65863;49.506;10.400;2023-04-06T03:00:04;10.87;;;8.37;;
9422;SDS011;65863;49.506;10.400;2023-04-06T03:02:55;10.07;;;8.17;;
9422;SDS011;65863;49.506;10.400;2023-04-06T03:05:41;10.97;;;7.97;;
9422;SDS011;65863;49.506;10.400;2023-04-06T03:08:26;10.57;;;8.27;;
9422;SDS011;65863;49.506;10.400;2023-04-06T03:11:10;11.10;;;7.73;;
9422;SDS011;65863;49.506;10.400;2023-04-06T03:13:58;9.93;;;7.43;;
9422;SDS011;65863;49.506;10.400;2023-04-06T03:16:42;10.40;;;7.77;;
9422;SDS011;65863;49.506;10.400;2023-04-06T03:19:29;13.43;;;8.17;;
9422;SDS011;65863;49.506;10.400;2023-04-06T03:22:17;10.43;;;8.43;;
9422;SDS011;65863;49.506;10.400;2023-04-06T03:25:05;11.83;;;8.57;;
9422;SDS011;65863;49.506;10.400;2023-04-06T03:27:50;10.63;;;7.93;;
9422;SDS011;65863;49.506;10.400;2023-04-06T03:30:36;8.63;;;7.67;;
9422;SDS011;65863;49.506;10.400;2023-04-06T03:33:21;12.47;;;8.57;;
9422;SDS011;65863;49.506;10.400;2023-04-06T03:36:11;9.77;;;7.13;;
9422;SDS011;65863;49.506;10.400;2023-04-06T03:38:58;10.50;;;8.17;;
9422;SDS011;65863;49.506;10.400;2023-04-06T03:41:42;9.67;;;7.67;;
9422;SDS011;65863;49.506;10.400;2023-04-06T03:44:44;9.90;;;8.17;;
9422;SDS011;65863;49.506;10.400;2023-04-06T03:47:28;11.00;;;7.70;;
9422;SDS011;65863;49.506;10.400;2023-04-06T03:50:16;10.53;;;8.20;;
9422;SDS011;65863;49.506;10.400;2023-04-06T03:53:02;10.07;;;8.23;;
9422;SDS011;65863;49.506;10.400;2023-04-06T03:55:48;10.17;;;7.77;;
9422;SDS011;65863;49.506;10.400;2023-04-06T03:58:33;11.33;;;8.67;;
9422;SDS011;65863;49.506;10.400;2023-04-06T04:01:17;12.60;;;8.80;;
9422;SDS011;65863;49.506;10.400;2023-04-06T04:04:01;9.77;;;8.00;;
9422;SDS011;65863;49.506;10.400;2023-04-06T04:06:48;10.90;;;8.40;;
9422;SDS011;65863;49.506;10.400;2023-04-06T04:09:32;9.47;;;7.53;;
9422;SDS011;65863;49.506;10.400;2023-04-06T04:12:16;11.57;;;8.13;;
9422;SDS011;65863;49.506;10.400;2023-04-06T04:15:00;10.27;;;7.53;;
9422;SDS011;65863;49.506;10.400;2023-04-06T04:17:45;10.27;;;8.20;;
9422;SDS011;65863;49.506;10.400;2023-04-06T04:20:30;10.53;;;7.93;;
9422;SDS011;65863;49.506;10.400;2023-04-06T04:23:14;9.40;;;7.33;;
9422;SDS011;65863;49.506;10.400;2023-04-06T04:25:58;10.30;;;7.90;;
9422;SDS011;65863;49.506;10.400;2023-04-06T04:28:43;10.67;;;7.97;;
9422;SDS011;65863;49.506;10.400;2023-04-06T04:31:27;11.30;;;7.23;;
9422;SDS011;65863;49.506;10.400;2023-04-06T04:34:16;8.97;;;7.43;;
9422;SDS011;65863;49.506;10.400;2023-04-06T04:37:00;9.20;;;7.10;;
9422;SDS011;65863;49.506;10.400;2023-04-06T04:40:03;9.33;;;7.37;;
9422;SDS011;65863;49.506;10.400;2023-04-06T04:42:56;9.70;;;7.37;;
9422;SDS011;65863;49.506;10.400;2023-04-06T04:45:48;10.53;;;7.83;;
9422;SDS011;65863;49.506;10.400;2023-04-06T04:48:45;16.87;;;8.67;;
9422;SDS011;65863;49.506;10.400;2023-04-06T04:51:29;9.03;;;8.10;;
9422;SDS011;65863;49.506;10.400;2023-04-06T04:54:40;12.17;;;8.87;;
9422;SDS011;65863;49.506;10.400;2023-04-06T04:57:29;14.07;;;8.07;;
9422;SDS011;65863;49.506;10.400;2023-04-06T05:00:13;13.30;;;8.83;;
9422;SDS011;65863;49.506;10.400;2023-04-06T05:03:01;11.50;;;8.77;;
9422;SDS011;65863;49.506;10.400;2023-04-06T05:05:52;10.50;;;8.20;;
9422;SDS011;65863;49.506;10.400;2023-04-06T05:08:37;11.77;;;9.03;;
9422;SDS011;65863;49.506;10.400;2023-04-06T05:11:22;11.77;;;8.83;;
9422;SDS011;65863;49.506;10.400;2023-04-06T05:14:12;13.30;;;8.83;;
9422;SDS011;65863;49.506;10.400;2023-04-06T05:16:56;13.33;;;8.93;;
9422;SDS011;65863;49.506;10.400;2023-04-06T05:19:43;11.67;;;9.23;;
9422;SDS011;65863;49.506;10.400;2023-04-06T05:22:28;13.10;;;9.17;;
9422;SDS011;65863;49.506;10.400;2023-04-06T05:25:19;13.27;;;9.37;;
9422;SDS011;65863;49.506;10.400;2023-04-06T05:28:07;13.23;;;8.60;;
9422;SDS011;65863;49.506;10.400;2023-04-06T05:30:54;11.10;;;7.23;;
9422;SDS011;65863;49.506;10.400;2023-04-06T05:33:38;8.73;;;7.07;;
9422;SDS011;65863;49.506;10.400;2023-04-06T05:36:26;8.80;;;6.90;;
9422;SDS011;65863;49.506;10.400;2023-04-06T05:39:11;9.23;;;6.73;;
9422;SDS011;65863;49.506;10.400;2023-04-06T05:42:04;8.77;;;6.20;;
9422;SDS011;65863;49.506;10.400;2023-04-06T05:45:08;6.73;;;5.67;;
9422;SDS011;65863;49.506;10.400;2023-04-06T05:47:53;6.77;;;5.70;;
9422;SDS011;65863;49.506;10.400;2023-04-06T05:50:42;6.30;;;5.17;;
9422;SDS011;65863;49.506;10.400;2023-04-06T05:53:30;10.63;;;5.87;;
9422;SDS011;65863;49.506;10.400;2023-04-06T05:56:17;6.73;;;5.20;;
9422;SDS011;65863;49.506;10.400;2023-04-06T05:59:01;5.40;;;4.77;;
9422;SDS011;65863;49.506;10.400;2023-04-06T06:01:47;6.67;;;5.53;;
9422;SDS011;65863;49.506;10.400;2023-04-06T06:04:31;8.17;;;5.20;;
9422;SDS011;65863;49.506;10.400;2023-04-06T06:07:16;7.07;;;5.57;;
9422;SDS011;65863;49.506;10.400;2023-04-06T06:10:05;8.13;;;5.37;;
9422;SDS011;65863;49.506;10.400;2023-04-06T06:12:53;9.67;;;5.50;;
9422;SDS011;65863;49.506;10.400;2023-04-06T06:15:37;9.47;;;6.50;;
9422;SDS011;65863;49.506;10.400;2023-04-06T06:18:21;12.77;;;7.40;;
9422;SDS011;65863;49.506;10.400;2023-04-06T06:21:08;12.63;;;7.60;;
9422;SDS011;65863;49.506;10.400;2023-04-06T06:23:53;9.43;;;6.97;;
9422;SDS011;65863;49.506;10.400;2023-04-06T06:26:39;11.73;;;7.23;;
9422;SDS011;65863;49.506;10.400;2023-04-06T06:29:24;9.27;;;7.47;;
9422;SDS011;65863;49.506;10.400;2023-04-06T06:32:09;9.73;;;7.20;;
9422;SDS011;65863;49.506;10.400;2023-04-06T06:34:54;14.20;;;7.47;;
9422;SDS011;65863;49.506;10.400;2023-04-06T06:37:38;7.13;;;5.60;;
9422;SDS011;65863;49.506;10.400;2023-04-06T06:40:25;8.73;;;5.63;;
9422;SDS011;65863;49.506;10.400;2023-04-06T06:43:12;10.90;;;6.17;;
9422;SDS011;65863;49.506;10.400;2023-04-06T06:46:10;8.80;;;6.70;;
9422;SDS011;65863;49.506;10.400;2023-04-06T06:48:54;27.30;;;6.80;;
9422;SDS011;65863;49.506;10.400;2023-04-06T06:51:39;11.10;;;7.07;;
9422;SDS011;65863;49.506;10.400;2023-04-06T06:54:23;12.63;;;6.90;;
9422;SDS011;65863;49.506;10.400;2023-04-06T06:57:08;7.40;;;5.73;;
9422;SDS011;65863;49.506;10.400;2023-04-06T06:59:52;9.87;;;6.30;;
9422;SDS011;65863;49.506;10.400;2023-04-06T07:02:39;7.57;;;6.40;;
9422;SDS011;65863;49.506;10.400;2023-04-06T07:05:23;10.40;;;6.23;;
9422;SDS011;65863;49.506;10.400;2023-04-06T07:08:07;7.93;;;6.47;;
9422;SDS011;65863;49.506;10.400;2023-04-06T07:10:51;7.67;;;5.77;;
9422;SDS011;65863;49.506;10.400;2023-04-06T07:13:36;8.27;;;6.67;;
9422;SDS011;65863;49.506;10.400;2023-04-06T07:16:20;11.27;;;6.67;;
9422;SDS011;65863;49.506;10.400;2023-04-06T07:19:04;8.30;;;7.00;;
9422;SDS011;65863;49.506;10.400;2023-04-06T07:21:48;9.53;;;6.00;;
9422;SDS011;65863;49.506;10.400;2023-04-06T07:24:33;8.80;;;6.50;;
9422;SDS011;65863;49.506;10.400;2023-04-06T07:27:17;7.90;;;6.10;;
9422;SDS011;65863;49.506;10.400;2023-04-06T07:30:02;10.53;;;6.83;;
9422;SDS011;65863;49.506;10.400;2023-04-06T07:32:47;9.67;;;6.37;;
9422;SDS011;65863;49.506;10.400;2023-04-06T07:35:32;7.87;;;6.33;;
9422;SDS011;65863;49.506;10.400;2023-04-06T07:38:16;8.87;;;6.47;;
9422;SDS011;65863;49.506;10.400;2023-04-06T07:41:01;12.03;;;7.97;;
9422;SDS011;65863;49.506;10.400;2023-04-06T07:43:48;11.63;;;7.63;;
9422;SDS011;65863;49.506;10.400;2023-04-06T07:46:32;9.40;;;7.67;;
9422;SDS011;65863;49.506;10.400;2023-04-06T07:49:16;11.33;;;8.07;;
9422;SDS011;65863;49.506;10.400;2023-04-06T07:52:01;14.47;;;7.10;;
9422;SDS011;65863;49.506;10.400;2023-04-06T07:54:46;7.97;;;6.10;;
9422;SDS011;65863;49.506;10.400;2023-04-06T07:57:32;8.10;;;6.20;;
9422;SDS011;65863;49.506;10.400;2023-04-06T08:00:16;7.10;;;5.87;;
9422;SDS011;65863;49.506;10.400;2023-04-06T08:03:01;7.93;;;6.67;;
9422;SDS011;65863;49.506;10.400;2023-04-06T08:05:45;9.80;;;6.77;;
9422;SDS011;65863;49.506;10.400;2023-04-06T08:08:29;7.37;;;6.23;;
9422;SDS011;65863;49.506;10.400;2023-04-06T08:11:14;8.87;;;5.93;;
9422;SDS011;65863;49.506;10.400;2023-04-06T08:13:58;10.00;;;6.00;;
9422;SDS011;65863;49.506;10.400;2023-04-06T08:16:42;9.63;;;6.43;;
9422;SDS011;65863;49.506;10.400;2023-04-06T08:19:26;9.30;;;6.30;;
9422;SDS011;65863;49.506;10.400;2023-04-06T08:22:10;6.33;;;5.73;;
9422;SDS011;65863;49.506;10.400;2023-04-06T08:24:55;7.67;;;6.23;;
9422;SDS011;65863;49.506;10.400;2023-04-06T08:27:39;8.77;;;6.30;;
9422;SDS011;65863;49.506;10.400;2023-04-06T08:30:23;7.17;;;6.27;;
9422;SDS011;65863;49.506;10.400;2023-04-06T08:33:07;10.20;;;6.57;;
9422;SDS011;65863;49.506;10.400;2023-04-06T08:35:51;7.83;;;6.40;;
9422;SDS011;65863;49.506;10.400;2023-04-06T08:38:35;10.70;;;6.53;;
9422;SDS011;65863;49.506;10.400;2023-04-06T08:41:19;8.90;;;6.30;;
9422;SDS011;65863;49.506;10.400;2023-04-06T08:44:04;9.20;;;6.50;;
9422;SDS011;65863;49.506;10.400;2023-04-06T08:46:48;8.03;;;6.30;;
9422;SDS011;65863;49.506;10.400;2023-04-06T08:49:34;9.37;;;6.43;;
9422;SDS011;65863;49.506;10.400;2023-04-06T08:52:21;8.63;;;6.20;;
9422;SDS011;65863;49.506;10.400;2023-04-06T08:55:05;9.53;;;7.03;;
9422;SDS011;65863;49.506;10.400;2023-04-06T08:57:50;9.63;;;7.00;;
9422;SDS011;65863;49.506;10.400;2023-04-06T09:00:37;8.77;;;6.27;;
9422;SDS011;65863;49.506;10.400;2023-04-06T09:03:22;7.90;;;6.53;;
9422;SDS011;65863;49.506;10.400;2023-04-06T09:06:07;6.93;;;6.23;;
9422;SDS011;65863;49.506;10.400;2023-04-06T09:08:52;9.83;;;6.47;;
9422;SDS011;65863;49.506;10.400;2023-04-06T09:11:47;9.53;;;7.23;;
9422;SDS011;65863;49.506;10.400;2023-04-06T09:14:38;8.53;;;6.97;;
9422;SDS011;65863;49.506;10.400;2023-04-06T09:17:23;7.20;;;6.27;;
9422;SDS011;65863;49.506;10.400;2023-04-06T09:20:12;9.07;;;6.73;;
9422;SDS011;65863;49.506;10.400;2023-04-06T09:22:56;8.70;;;6.47;;
9422;SDS011;65863;49.506;10.400;2023-04-06T09:25:40;10.00;;;7.07;;
9422;SDS011;65863;49.506;10.400;2023-04-06T09:28:24;8.53;;;6.43;;
9422;SDS011;65863;49.506;10.400;2023-04-06T09:31:09;7.60;;;6.33;;
9422;SDS011;65863;49.506;10.400;2023-04-06T09:33:54;9.37;;;6.90;;
9422;SDS011;65863;49.506;10.400;2023-04-06T09:36:39;14.60;;;6.83;;
9422;SDS011;65863;49.506;10.400;2023-04-06T09:39:25;10.07;;;6.67;;
9422;SDS011;65863;49.506;10.400;2023-04-06T09:42:10;6.93;;;6.23;;
9422;SDS011;65863;49.506;10.400;2023-04-06T09:45:07;7.20;;;6.17;;
9422;SDS011;65863;49.506;10.400;2023-04-06T09:47:51;9.93;;;6.93;;
9422;SDS011;65863;49.506;10.400;2023-04-06T09:50:37;7.63;;;6.03;;
9422;SDS011;65863;49.506;10.400;2023-04-06T09:53:21;8.50;;;6.63;;
9422;SDS011;65863;49.506;10.400;2023-04-06T09:56:11;7.23;;;6.17;;
9422;SDS011;65863;49.506;10.400;2023-04-06T09:59:01;8.97;;;7.80;;
9422;SDS011;65863;49.506;10.400;2023-04-06T10:01:48;14.27;;;7.33;;
9422;SDS011;65863;49.506;10.400;2023-04-06T10:04:56;11.13;;;6.80;;
9422;SDS011;65863;49.506;10.400;2023-04-06T10:07:46;8.13;;;6.90;;
9422;SDS011;65863;49.506;10.400;2023-04-06T10:10:32;7.87;;;6.60;;
9422;SDS011;65863;49.506;10.400;2023-04-06T10:13:16;9.80;;;6.90;;
9422;SDS011;65863;49.506;10.400;2023-04-06T10:16:01;7.03;;;6.23;;
9422;SDS011;65863;49.506;10.400;2023-04-06T10:18:47;7.70;;;6.90;;
9422;SDS011;65863;49.506;10.400;2023-04-06T10:21:38;8.03;;;6.87;;
9422;SDS011;65863;49.506;10.400;2023-04-06T10:24:23;8.63;;;6.37;;
9422;SDS011;65863;49.506;10.400;2023-04-06T10:27:08;7.63;;;6.17;;
9422;SDS011;65863;49.506;10.400;2023-04-06T10:29:54;8.13;;;6.53;;
9422;SDS011;65863;49.506;10.400;2023-04-06T10:32:45;9.23;;;6.47;;
9422;SDS011;65863;49.506;10.400;2023-04-06T10:35:36;7.40;;;6.27;;
9422;SDS011;65863;49.506;10.400;2023-04-06T10:38:32;7.50;;;6.00;;
9422;SDS011;65863;49.506;10.400;2023-04-06T10:41:18;7.30;;;6.50;;
9422;SDS011;65863;49.506;10.400;2023-04-06T10:44:02;8.53;;;7.03;;
9422;SDS011;65863;49.506;10.400;2023-04-06T10:46:56;7.77;;;6.63;;
9422;SDS011;65863;49.506;10.400;2023-04-06T10:49:44;10.63;;;6.97;;
9422;SDS011;65863;49.506;10.400;2023-04-06T10:52:28;7.93;;;7.00;;
9422;SDS011;65863;49.506;10.400;2023-04-06T10:55:15;7.60;;;6.80;;
9422;SDS011;65863;49.506;10.400;2023-04-06T10:58:00;8.03;;;6.63;;
9422;SDS011;65863;49.506;10.400;2023-04-06T11:00:45;8.87;;;6.73;;
9422;SDS011;65863;49.506;10.400;2023-04-06T11:03:30;8.27;;;6.83;;
9422;SDS011;65863;49.506;10.400;2023-04-06T11:09:03;7.73;;;6.80;;
9422;SDS011;65863;49.506;10.400;2023-04-06T11:11:47;8.40;;;7.30;;
9422;SDS011;65863;49.506;10.400;2023-04-06T11:14:38;7.90;;;6.33;;
9422;SDS011;65863;49.506;10.400;2023-04-06T11:17:26;7.00;;;6.30;;
9422;SDS011;65863;49.506;10.400;2023-04-06T11:20:11;7.43;;;6.63;;
9422;SDS011;65863;49.506;10.400;2023-04-06T11:22:55;7.37;;;6.40;;
9422;SDS011;65863;49.506;10.400;2023-04-06T11:25:49;8.13;;;6.67;;
9422;SDS011;65863;49.506;10.400;2023-04-06T11:28:35;9.17;;;6.80;;
9422;SDS011;65863;49.506;10.400;2023-04-06T11:31:20;8.70;;;7.70;;
9422;SDS011;65863;49.506;10.400;2023-04-06T11:34:12;8.43;;;6.87;;
9422;SDS011;65863;49.506;10.400;2023-04-06T11:37:03;8.33;;;6.87;;
9422;SDS011;65863;49.506;10.400;2023-04-06T11:39:51;7.37;;;6.20;;
9422;SDS011;65863;49.506;10.400;2023-04-06T11:42:37;8.67;;;6.23;;
9422;SDS011;65863;49.506;10.400;2023-04-06T11:45:21;8.67;;;6.20;;
9422;SDS011;65863;49.506;10.400;2023-04-06T11:48:06;7.07;;;5.80;;
9422;SDS011;65863;49.506;10.400;2023-04-06T11:51:02;7.20;;;6.50;;
9422;SDS011;65863;49.506;10.400;2023-04-06T11:53:48;8.13;;;6.13;;
9422;SDS011;65863;49.506;10.400;2023-04-06T11:56:32;6.77;;;5.80;;
9422;SDS011;65863;49.506;10.400;2023-04-06T11:59:16;7.10;;;5.70;;
9422;SDS011;65863;49.506;10.400;2023-04-06T12:02:01;7.63;;;5.83;;
9422;SDS011;65863;49.506;10.400;2023-04-06T12:04:45;6.40;;;5.80;;
9422;SDS011;65863;49.506;10.400;2023-04-06T12:07:29;6.90;;;5.50;;
9422;SDS011;65863;49.506;10.400;2023-04-06T12:10:14;6.20;;;5.60;;
9422;SDS011;65863;49.506;10.400;2023-04-06T12:12:58;8.00;;;6.60;;
9422;SDS011;65863;49.506;10.400;2023-04-06T12:15:42;6.97;;;6.27;;
9422;SDS011;65863;49.506;10.400;2023-04-06T12:18:26;6.60;;;6.00;;
9422;SDS011;65863;49.506;10.400;2023-04-06T12:21:10;7.90;;;6.53;;
9422;SDS011;65863;49.506;10.400;2023-04-06T12:23:54;9.37;;;7.00;;
9422;SDS011;65863;49.506;10.400;2023-04-06T12:26:38;8.27;;;6.33;;
9422;SDS011;65863;49.506;10.400;2023-04-06T12:29:24;7.70;;;6.50;;
9422;SDS011;65863;49.506;10.400;2023-04-06T12:32:08;6.63;;;5.80;;
9422;SDS011;65863;49.506;10.400;2023-04-06T12:34:52;9.67;;;7.07;;
9422;SDS011;65863;49.506;10.400;2023-04-06T12:37:37;8.43;;;6.80;;
9422;SDS011;65863;49.506;10.400;2023-04-06T12:40:21;6.87;;;6.20;;
9422;SDS011;65863;49.506;10.400;2023-04-06T12:43:04;7.67;;;6.87;;
9422;SDS011;65863;49.506;10.400;2023-04-06T12:45:48;7.47;;;6.73;;
9422;SDS011;65863;49.506;10.400;2023-04-06T12:48:33;7.80;;;7.00;;
9422;SDS011;65863;49.506;10.400;2023-04-06T12:51:21;7.93;;;6.57;;
9422;SDS011;65863;49.506;10.400;2023-04-06T12:54:05;7.80;;;6.70;;
9422;SDS011;65863;49.506;10.400;2023-04-06T12:56:50;11.23;;;6.70;;
9422;SDS011;65863;49.506;10.400;2023-04-06T12:59:34;7.70;;;6.20;;
9422;SDS011;65863;49.506;10.400;2023-04-06T13:02:19;23.73;;;8.10;;
9422;SDS011;65863;49.506;10.400;2023-04-06T13:05:06;7.47;;;6.17;;
9422;SDS011;65863;49.506;10.400;2023-04-06T13:07:50;8.17;;;6.60;;
9422;SDS011;65863;49.506;10.400;2023-04-06T13:10:34;9.40;;;7.20;;
9422;SDS011;65863;49.506;10.400;2023-04-06T13:13:26;7.57;;;6.87;;
9422;SDS011;65863;49.506;10.400;2023-04-06T13:16:10;7.60;;;6.30;;
9422;SDS011;65863;49.506;10.400;2023-04-06T13:18:54;9.07;;;6.67;;
9422;SDS011;65863;49.506;10.400;2023-04-06T13:21:39;9.93;;;6.97;;
9422;SDS011;65863;49.506;10.400;2023-04-06T13:24:23;8.93;;;6.80;;
9422;SDS011;65863;49.506;10.400;2023-04-06T13:27:07;7.57;;;6.73;;
9422;SDS011;65863;49.506;10.400;2023-04-06T13:32:41;5.97;;;5.37;;
9422;SDS011;65863;49.506;10.400;2023-04-06T13:35:25;7.67;;;5.73;;
9422;SDS011;65863;49.506;10.400;2023-04-06T13:38:09;6.00;;;4.93;;
9422;SDS011;65863;49.506;10.400;2023-04-06T13:40:54;6.83;;;5.37;;
9422;SDS011;65863;49.506;10.400;2023-04-06T13:43:38;6.33;;;5.70;;
9422;SDS011;65863;49.506;10.400;2023-04-06T13:46:23;6.17;;;5.37;;
9422;SDS011;65863;49.506;10.400;2023-04-06T13:49:07;9.57;;;6.97;;
9422;SDS011;65863;49.506;10.400;2023-04-06T13:51:51;7.73;;;6.53;;
9422;SDS011;65863;49.506;10.400;2023-04-06T13:54:36;6.57;;;5.97;;
9422;SDS011;65863;49.506;10.400;2023-04-06T13:57:20;6.60;;;5.83;;
9422;SDS011;65863;49.506;10.400;2023-04-06T14:00:04;8.67;;;6.43;;
9422;SDS011;65863;49.506;10.400;2023-04-06T14:02:50;7.93;;;6.60;;
9422;SDS011;65863;49.506;10.400;2023-04-06T14:05:34;7.20;;;6.50;;
9422;SDS011;65863;49.506;10.400;2023-04-06T14:08:19;7.73;;;6.17;;
9422;SDS011;65863;49.506;10.400;2023-04-06T14:11:04;7.73;;;6.40;;
9422;SDS011;65863;49.506;10.400;2023-04-06T14:13:50;6.90;;;6.20;;
9422;SDS011;65863;49.506;10.400;2023-04-06T14:16:34;8.10;;;6.37;;
9422;SDS011;65863;49.506;10.400;2023-04-06T14:19:18;7.10;;;6.27;;
9422;SDS011;65863;49.506;10.400;2023-04-06T14:22:02;7.07;;;6.37;;
9422;SDS011;65863;49.506;10.400;2023-04-06T14:24:47;6.60;;;5.90;;
9422;SDS011;65863;49.506;10.400;2023-04-06T14:27:31;7.63;;;5.93;;
9422;SDS011;65863;49.506;10.400;2023-04-06T14:30:16;6.97;;;6.20;;
9422;SDS011;65863;49.506;10.400;2023-04-06T14:33:01;9.13;;;6.93;;
9422;SDS011;65863;49.506;10.400;2023-04-06T14:35:45;6.73;;;6.03;;
9422;SDS011;65863;49.506;10.400;2023-04-06T14:38:29;7.00;;;6.30;;
9422;SDS011;65863;49.506;10.400;2023-04-06T14:41:16;8.67;;;6.20;;
9422;SDS011;65863;49.506;10.400;2023-04-06T14:44:02;7.17;;;6.47;;
9422;SDS011;65863;49.506;10.400;2023-04-06T14:46:46;7.63;;;6.30;;
9422;SDS011;65863;49.506;10.400;2023-04-06T14:49:30;8.80;;;6.30;;
9422;SDS011;65863;49.506;10.400;2023-04-06T14:52:14;7.83;;;5.93;;
9422;SDS011;65863;49.506;10.400;2023-04-06T14:54:59;6.23;;;5.63;;
9422;SDS011;65863;49.506;10.400;2023-04-06T14:57:43;6.53;;;5.87;;
9422;SDS011;65863;49.506;10.400;2023-04-06T15:00:27;6.33;;;5.73;;
9422;SDS011;65863;49.506;10.400;2023-04-06T15:03:11;6.47;;;5.87;;
9422;SDS011;65863;49.506;10.400;2023-04-06T15:05:55;6.87;;;6.10;;
9422;SDS011;65863;49.506;10.400;2023-04-06T15:08:40;6.17;;;5.60;;
9422;SDS011;65863;49.506;10.400;2023-04-06T15:11:25;7.70;;;6.03;;
9422;SDS011;65863;49.506;10.400;2023-04-06T15:14:09;7.20;;;5.87;;
9422;SDS011;65863;49.506;10.400;2023-04-06T15:16:53;6.20;;;5.60;;
9422;SDS011;65863;49.506;10.400;2023-04-06T15:19:37;8.23;;;5.60;;
9422;SDS011;65863;49.506;10.400;2023-04-06T15:22:21;12.53;;;6.40;;
9422;SDS011;65863;49.506;10.400;2023-04-06T15:25:06;7.03;;;6.10;;
9422;SDS011;65863;49.506;10.400;2023-04-06T15:27:50;6.50;;;5.80;;
9422;SDS011;65863;49.506;10.400;2023-04-06T15:30:34;6.57;;;5.80;;
9422;SDS011;65863;49.506;10.400;2023-04-06T15:33:19;7.23;;;5.60;;
9422;SDS011;65863;49.506;10.400;2023-04-06T15:36:06;6.93;;;6.23;;
9422;SDS011;65863;49.506;10.400;2023-04-06T15:39:00;7.13;;;6.23;;
9422;SDS011;65863;49.506;10.400;2023-04-06T15:41:44;9.90;;;6.07;;
9422;SDS011;65863;49.506;10.400;2023-04-06T15:44:28;6.77;;;6.07;;
9422;SDS011;65863;49.506;10.400;2023-04-06T15:47:12;6.87;;;6.17;;
9422;SDS011;65863;49.506;10.400;2023-04-06T15:49:56;7.23;;;6.20;;
9422;SDS011;65863;49.506;10.400;2023-04-06T15:52:40;6.60;;;5.77;;
9422;SDS011;65863;49.506;10.400;2023-04-06T15:55:24;6.60;;;5.90;;
9422;SDS011;65863;49.506;10.400;2023-04-06T15:58:08;6.87;;;5.43;;
9422;SDS011;65863;49.506;10.400;2023-04-06T16:00:52;6.27;;;5.67;;
9422;SDS011;65863;49.506;10.400;2023-04-06T16:03:37;5.87;;;5.30;;
9422;SDS011;65863;49.506;10.400;2023-04-06T16:06:21;6.67;;;5.80;;
9422;SDS011;65863;49.506;10.400;2023-04-06T16:09:05;5.93;;;5.30;;
9422;SDS011;65863;49.506;10.400;2023-04-06T16:11:49;7.03;;;6.33;;
9422;SDS011;65863;49.506;10.400;2023-04-06T16:14:33;8.33;;;5.97;;
9422;SDS011;65863;49.506;10.400;2023-04-06T16:17:17;6.57;;;5.37;;
9422;SDS011;65863;49.506;10.400;2023-04-06T16:20:01;6.90;;;6.20;;
9422;SDS011;65863;49.506;10.400;2023-04-06T16:22:45;7.10;;;6.00;;
9422;SDS011;65863;49.506;10.400;2023-04-06T16:25:30;8.97;;;6.47;;
9422;SDS011;65863;49.506;10.400;2023-04-06T16:28:14;7.17;;;6.00;;
9422;SDS011;65863;49.506;10.400;2023-04-06T16:30:58;9.33;;;5.90;;
9422;SDS011;65863;49.506;10.400;2023-04-06T16:33:42;7.70;;;5.83;;
9422;SDS011;65863;49.506;10.400;2023-04-06T16:36:27;9.83;;;5.97;;
9422;SDS011;65863;49.506;10.400;2023-04-06T16:39:12;6.53;;;5.60;;
9422;SDS011;65863;49.506;10.400;2023-04-06T16:44:43;7.00;;;5.70;;